sensor_id;sensor_type;location;lat;lon;timestamp;P1;durP1;ratioP1;P2;durP2;ratioP2
48588;SDS011;34369;51.174;6.738;2023-09-08T00:01:57;30.02;;;27.92;;
48588;SDS011;34369;51.174;6.738;2023-09-08T00:04:30;29.92;;;27.85;;
48588;SDS011;34369;51.174;6.738;2023-09-08T00:07:03;29.58;;;27.58;;
48588;SDS011;34369;51.174;6.738;2023-09-08T00:09:37;31.17;;;28.88;;
48588;SDS011;34369;51.174;6.738;2023-09-08T00:12:09;30.38;;;28.27;;
48588;SDS011;34369;51.174;6.738;2023-09-08T00:14:42;29.73;;;27.67;;
48588;SDS011;34369;51.174;6.738;2023-09-08T00:17:14;31.20;;;28.90;;
48588;SDS011;34369;51.174;6.738;2023-09-08T00:19:46;31.23;;;28.85;;
48588;SDS011;34369;51.174;6.738;2023-09-08T00:22:18;31.10;;;28.90;;
48588;SDS011;34369;51.174;6.738;2023-09-08T00:24:53;29.83;;;27.83;;
48588;SDS011;34369;51.174;6.738;2023-09-08T00:27:26;30.02;;;27.95;;
48588;SDS011;34369;51.174;6.738;2023-09-08T00:29:58;30.88;;;28.58;;
48588;SDS011;34369;51.174;6.738;2023-09-08T00:32:31;31.13;;;28.98;;
48588;SDS011;34369;51.174;6.738;2023-09-08T00:35:05;31.00;;;28.80;;
48588;SDS011;34369;51.174;6.738;2023-09-08T00:37:39;30.75;;;28.55;;
48588;SDS011;34369;51.174;6.738;2023-09-08T00:40:13;31.35;;;29.15;;
48588;SDS011;34369;51.174;6.738;2023-09-08T00:42:45;31.35;;;29.15;;
48588;SDS011;34369;51.174;6.738;2023-09-08T00:45:18;31.00;;;28.90;;
48588;SDS011;34369;51.174;6.738;2023-09-08T00:47:50;30.60;;;28.40;;
48588;SDS011;34369;51.174;6.738;2023-09-08T00:50:22;30.58;;;28.38;;
48588;SDS011;34369;51.174;6.738;2023-09-08T00:52:54;31.45;;;29.25;;
48588;SDS011;34369;51.174;6.738;2023-09-08T00:55:28;31.05;;;28.88;;
48588;SDS011;34369;51.174;6.738;2023-09-08T00:58:01;31.45;;;29.20;;
48588;SDS011;34369;51.174;6.738;2023-09-08T01:00:34;31.17;;;28.98;;
48588;SDS011;34369;51.174;6.738;2023-09-08T01:03:06;30.80;;;28.60;;
48588;SDS011;34369;51.174;6.738;2023-09-08T01:05:40;30.83;;;28.80;;
48588;SDS011;34369;51.174;6.738;2023-09-08T01:08:12;30.58;;;28.48;;
48588;SDS011;34369;51.174;6.738;2023-09-08T01:10:46;31.50;;;29.30;;
48588;SDS011;34369;51.174;6.738;2023-09-08T01:13:19;30.33;;;28.23;;
48588;SDS011;34369;51.174;6.738;2023-09-08T01:15:51;31.90;;;29.60;;
48588;SDS011;34369;51.174;6.738;2023-09-08T01:18:23;31.45;;;29.25;;
48588;SDS011;34369;51.174;6.738;2023-09-08T01:21:03;31.13;;;29.02;;
48588;SDS011;34369;51.174;6.738;2023-09-08T01:26:44;31.83;;;29.45;;
48588;SDS011;34369;51.174;6.738;2023-09-08T01:29:16;31.35;;;29.02;;
48588;SDS011;34369;51.174;6.738;2023-09-08T01:31:50;31.23;;;29.02;;
48588;SDS011;34369;51.174;6.738;2023-09-08T01:34:22;31.55;;;29.23;;
48588;SDS011;34369;51.174;6.738;2023-09-08T01:36:55;31.42;;;29.08;;
48588;SDS011;34369;51.174;6.738;2023-09-08T01:39:30;32.72;;;30.48;;
48588;SDS011;34369;51.174;6.738;2023-09-08T01:42:04;31.90;;;29.75;;
48588;SDS011;34369;51.174;6.738;2023-09-08T01:44:36;32.03;;;29.55;;
48588;SDS011;34369;51.174;6.738;2023-09-08T01:47:08;31.85;;;29.65;;
48588;SDS011;34369;51.174;6.738;2023-09-08T01:49:40;31.98;;;29.67;;
48588;SDS011;34369;51.174;6.738;2023-09-08T01:52:13;31.50;;;29.30;;
48588;SDS011;34369;51.174;6.738;2023-09-08T01:54:45;31.77;;;29.58;;
48588;SDS011;34369;51.174;6.738;2023-09-08T01:57:19;30.90;;;28.73;;
48588;SDS011;34369;51.174;6.738;2023-09-08T01:59:51;30.85;;;28.75;;
48588;SDS011;34369;51.174;6.738;2023-09-08T02:02:23;31.70;;;29.50;;
48588;SDS011;34369;51.174;6.738;2023-09-08T02:04:55;32.60;;;30.30;;
48588;SDS011;34369;51.174;6.738;2023-09-08T02:07:27;31.50;;;29.30;;
48588;SDS011;34369;51.174;6.738;2023-09-08T02:09:59;32.55;;;30.02;;
48588;SDS011;34369;51.174;6.738;2023-09-08T02:12:34;32.95;;;30.38;;
48588;SDS011;34369;51.174;6.738;2023-09-08T02:15:06;32.55;;;30.25;;
48588;SDS011;34369;51.174;6.738;2023-09-08T02:17:41;32.08;;;29.88;;
48588;SDS011;34369;51.174;6.738;2023-09-08T02:20:13;32.67;;;30.40;;
48588;SDS011;34369;51.174;6.738;2023-09-08T02:22:45;31.98;;;29.63;;
48588;SDS011;34369;51.174;6.738;2023-09-08T02:25:20;32.20;;;29.88;;
48588;SDS011;34369;51.174;6.738;2023-09-08T02:27:56;32.85;;;30.33;;
48588;SDS011;34369;51.174;6.738;2023-09-08T02:30:28;32.47;;;30.27;;
48588;SDS011;34369;51.174;6.738;2023-09-08T02:33:00;32.80;;;30.60;;
48588;SDS011;34369;51.174;6.738;2023-09-08T02:35:35;31.85;;;29.65;;
48588;SDS011;34369;51.174;6.738;2023-09-08T02:38:08;33.28;;;30.98;;
48588;SDS011;34369;51.174;6.738;2023-09-08T02:40:41;32.38;;;30.05;;
48588;SDS011;34369;51.174;6.738;2023-09-08T02:43:15;31.63;;;29.52;;
48588;SDS011;34369;51.174;6.738;2023-09-08T02:45:48;32.63;;;30.42;;
48588;SDS011;34369;51.174;6.738;2023-09-08T02:48:20;32.38;;;30.17;;
48588;SDS011;34369;51.174;6.738;2023-09-08T02:50:52;32.22;;;30.02;;
48588;SDS011;34369;51.174;6.738;2023-09-08T02:53:24;33.25;;;30.80;;
48588;SDS011;34369;51.174;6.738;2023-09-08T02:55:58;33.08;;;30.77;;
48588;SDS011;34369;51.174;6.738;2023-09-08T02:58:34;32.55;;;30.35;;
48588;SDS011;34369;51.174;6.738;2023-09-08T03:01:10;32.45;;;30.25;;
48588;SDS011;34369;51.174;6.738;2023-09-08T03:03:44;32.25;;;29.95;;
48588;SDS011;34369;51.174;6.738;2023-09-08T03:06:18;32.67;;;30.48;;
48588;SDS011;34369;51.174;6.738;2023-09-08T03:08:51;31.75;;;29.63;;
48588;SDS011;34369;51.174;6.738;2023-09-08T03:11:23;32.30;;;29.88;;
48588;SDS011;34369;51.174;6.738;2023-09-08T03:13:57;32.70;;;30.50;;
48588;SDS011;34369;51.174;6.738;2023-09-08T03:16:29;33.42;;;31.13;;
48588;SDS011;34369;51.174;6.738;2023-09-08T03:19:01;33.00;;;30.70;;
48588;SDS011;34369;51.174;6.738;2023-09-08T03:21:34;32.97;;;30.58;;
48588;SDS011;34369;51.174;6.738;2023-09-08T03:24:06;31.25;;;29.15;;
48588;SDS011;34369;51.174;6.738;2023-09-08T03:26:39;33.20;;;30.80;;
48588;SDS011;34369;51.174;6.738;2023-09-08T03:29:13;31.85;;;29.67;;
48588;SDS011;34369;51.174;6.738;2023-09-08T03:31:45;32.60;;;30.25;;
48588;SDS011;34369;51.174;6.738;2023-09-08T03:34:18;32.40;;;30.13;;
48588;SDS011;34369;51.174;6.738;2023-09-08T03:36:53;32.20;;;30.00;;
48588;SDS011;34369;51.174;6.738;2023-09-08T03:39:25;32.25;;;29.95;;
48588;SDS011;34369;51.174;6.738;2023-09-08T03:41:57;31.98;;;29.63;;
48588;SDS011;34369;51.174;6.738;2023-09-08T03:44:30;32.38;;;30.17;;
48588;SDS011;34369;51.174;6.738;2023-09-08T03:47:03;33.30;;;30.65;;
48588;SDS011;34369;51.174;6.738;2023-09-08T03:49:35;32.65;;;30.45;;
48588;SDS011;34369;51.174;6.738;2023-09-08T03:52:07;31.80;;;29.58;;
48588;SDS011;34369;51.174;6.738;2023-09-08T03:54:39;31.45;;;29.25;;
48588;SDS011;34369;51.174;6.738;2023-09-08T03:57:12;32.63;;;30.35;;
48588;SDS011;34369;51.174;6.738;2023-09-08T03:59:46;31.90;;;29.70;;
48588;SDS011;34369;51.174;6.738;2023-09-08T04:02:18;32.25;;;30.00;;
48588;SDS011;34369;51.174;6.738;2023-09-08T04:04:50;32.40;;;30.20;;
48588;SDS011;34369;51.174;6.738;2023-09-08T04:07:22;31.23;;;28.92;;
48588;SDS011;34369;51.174;6.738;2023-09-08T04:09:54;32.17;;;29.98;;
48588;SDS011;34369;51.174;6.738;2023-09-08T04:12:26;32.10;;;29.70;;
48588;SDS011;34369;51.174;6.738;2023-09-08T04:15:00;32.88;;;30.48;;
48588;SDS011;34369;51.174;6.738;2023-09-08T04:17:32;31.70;;;29.42;;
48588;SDS011;34369;51.174;6.738;2023-09-08T04:20:06;31.88;;;29.70;;
48588;SDS011;34369;51.174;6.738;2023-09-08T04:22:39;32.50;;;30.20;;
48588;SDS011;34369;51.174;6.738;2023-09-08T04:25:11;32.28;;;29.98;;
48588;SDS011;34369;51.174;6.738;2023-09-08T04:27:44;31.52;;;29.33;;
48588;SDS011;34369;51.174;6.738;2023-09-08T04:30:17;32.13;;;29.75;;
48588;SDS011;34369;51.174;6.738;2023-09-08T04:32:49;31.65;;;29.45;;
48588;SDS011;34369;51.174;6.738;2023-09-08T04:35:22;32.80;;;30.40;;
48588;SDS011;34369;51.174;6.738;2023-09-08T04:37:54;32.42;;;30.23;;
48588;SDS011;34369;51.174;6.738;2023-09-08T04:40:27;31.67;;;29.58;;
48588;SDS011;34369;51.174;6.738;2023-09-08T04:42:59;31.92;;;29.73;;
48588;SDS011;34369;51.174;6.738;2023-09-08T04:45:33;31.55;;;29.25;;
48588;SDS011;34369;51.174;6.738;2023-09-08T04:48:06;32.80;;;30.45;;
48588;SDS011;34369;51.174;6.738;2023-09-08T04:50:38;31.98;;;29.67;;
48588;SDS011;34369;51.174;6.738;2023-09-08T04:53:10;32.78;;;30.55;;
48588;SDS011;34369;51.174;6.738;2023-09-08T04:55:44;32.63;;;30.40;;
48588;SDS011;34369;51.174;6.738;2023-09-08T04:58:16;32.70;;;30.45;;
48588;SDS011;34369;51.174;6.738;2023-09-08T05:00:49;32.80;;;30.60;;
48588;SDS011;34369;51.174;6.738;2023-09-08T05:03:21;32.47;;;30.27;;
48588;SDS011;34369;51.174;6.738;2023-09-08T05:05:54;32.45;;;30.17;;
48588;SDS011;34369;51.174;6.738;2023-09-08T05:08:26;32.90;;;30.70;;
48588;SDS011;34369;51.174;6.738;2023-09-08T05:10:59;33.30;;;30.90;;
48588;SDS011;34369;51.174;6.738;2023-09-08T05:13:31;33.13;;;30.83;;
48588;SDS011;34369;51.174;6.738;2023-09-08T05:16:05;33.70;;;31.30;;
48588;SDS011;34369;51.174;6.738;2023-09-08T05:18:42;32.08;;;29.67;;
48588;SDS011;34369;51.174;6.738;2023-09-08T05:21:15;32.15;;;29.80;;
48588;SDS011;34369;51.174;6.738;2023-09-08T05:23:48;32.00;;;29.80;;
48588;SDS011;34369;51.174;6.738;2023-09-08T05:26:20;32.45;;;30.13;;
48588;SDS011;34369;51.174;6.738;2023-09-08T05:28:53;32.35;;;30.05;;
48588;SDS011;34369;51.174;6.738;2023-09-08T05:31:26;32.40;;;30.20;;
48588;SDS011;34369;51.174;6.738;2023-09-08T05:33:59;31.65;;;29.05;;
48588;SDS011;34369;51.174;6.738;2023-09-08T05:36:33;33.10;;;30.80;;
48588;SDS011;34369;51.174;6.738;2023-09-08T05:39:08;32.42;;;30.13;;
48588;SDS011;34369;51.174;6.738;2023-09-08T05:41:43;32.88;;;30.48;;
48588;SDS011;34369;51.174;6.738;2023-09-08T05:44:16;32.95;;;30.65;;
48588;SDS011;34369;51.174;6.738;2023-09-08T05:46:52;33.20;;;30.25;;
48588;SDS011;34369;51.174;6.738;2023-09-08T05:49:24;32.60;;;30.27;;
48588;SDS011;34369;51.174;6.738;2023-09-08T05:51:56;30.85;;;28.75;;
48588;SDS011;34369;51.174;6.738;2023-09-08T05:54:29;32.30;;;30.00;;
48588;SDS011;34369;51.174;6.738;2023-09-08T05:57:01;32.50;;;30.05;;
48588;SDS011;34369;51.174;6.738;2023-09-08T05:59:34;32.95;;;30.52;;
48588;SDS011;34369;51.174;6.738;2023-09-08T06:02:11;32.33;;;30.00;;
48588;SDS011;34369;51.174;6.738;2023-09-08T06:04:43;32.72;;;29.92;;
48588;SDS011;34369;51.174;6.738;2023-09-08T06:07:18;31.42;;;29.08;;
48588;SDS011;34369;51.174;6.738;2023-09-08T06:09:50;33.00;;;30.38;;
48588;SDS011;34369;51.174;6.738;2023-09-08T06:12:22;32.45;;;30.15;;
48588;SDS011;34369;51.174;6.738;2023-09-08T06:15:00;33.38;;;30.63;;
48588;SDS011;34369;51.174;6.738;2023-09-08T06:17:35;32.33;;;29.92;;
48588;SDS011;34369;51.174;6.738;2023-09-08T06:20:08;32.33;;;30.08;;
48588;SDS011;34369;51.174;6.738;2023-09-08T06:22:46;32.72;;;30.13;;
48588;SDS011;34369;51.174;6.738;2023-09-08T06:25:18;32.53;;;30.13;;
48588;SDS011;34369;51.174;6.738;2023-09-08T06:27:50;31.23;;;29.02;;
48588;SDS011;34369;51.174;6.738;2023-09-08T06:30:23;31.35;;;29.15;;
48588;SDS011;34369;51.174;6.738;2023-09-08T06:32:58;30.85;;;28.55;;
48588;SDS011;34369;51.174;6.738;2023-09-08T06:35:30;31.55;;;29.10;;
48588;SDS011;34369;51.174;6.738;2023-09-08T06:38:04;31.73;;;29.33;;
48588;SDS011;34369;51.174;6.738;2023-09-08T06:40:36;31.25;;;28.95;;
48588;SDS011;34369;51.174;6.738;2023-09-08T06:43:08;30.48;;;28.35;;
48588;SDS011;34369;51.174;6.738;2023-09-08T06:45:40;32.03;;;29.20;;
48588;SDS011;34369;51.174;6.738;2023-09-08T06:48:14;30.60;;;28.40;;
48588;SDS011;34369;51.174;6.738;2023-09-08T06:50:47;30.17;;;28.08;;
48588;SDS011;34369;51.174;6.738;2023-09-08T06:53:19;29.65;;;27.65;;
48588;SDS011;34369;51.174;6.738;2023-09-08T06:55:51;30.05;;;27.85;;
48588;SDS011;34369;51.174;6.738;2023-09-08T06:58:23;30.30;;;28.10;;
48588;SDS011;34369;51.174;6.738;2023-09-08T07:00:57;29.30;;;27.20;;
48588;SDS011;34369;51.174;6.738;2023-09-08T07:03:31;29.55;;;27.42;;
48588;SDS011;34369;51.174;6.738;2023-09-08T07:06:06;29.55;;;27.35;;
48588;SDS011;34369;51.174;6.738;2023-09-08T07:08:39;28.88;;;26.83;;
48588;SDS011;34369;51.174;6.738;2023-09-08T07:11:11;28.58;;;26.58;;
48588;SDS011;34369;51.174;6.738;2023-09-08T07:13:44;29.02;;;26.90;;
48588;SDS011;34369;51.174;6.738;2023-09-08T07:16:17;29.42;;;27.42;;
48588;SDS011;34369;51.174;6.738;2023-09-08T07:18:51;29.17;;;26.90;;
48588;SDS011;34369;51.174;6.738;2023-09-08T07:21:23;28.75;;;26.75;;
48588;SDS011;34369;51.174;6.738;2023-09-08T07:23:56;27.63;;;25.73;;
48588;SDS011;34369;51.174;6.738;2023-09-08T07:26:28;28.33;;;26.23;;
48588;SDS011;34369;51.174;6.738;2023-09-08T07:29:00;28.30;;;26.17;;
48588;SDS011;34369;51.174;6.738;2023-09-08T07:31:34;27.95;;;25.95;;
48588;SDS011;34369;51.174;6.738;2023-09-08T07:34:08;27.80;;;25.60;;
48588;SDS011;34369;51.174;6.738;2023-09-08T07:36:40;26.77;;;24.88;;
48588;SDS011;34369;51.174;6.738;2023-09-08T07:39:12;27.48;;;25.23;;
48588;SDS011;34369;51.174;6.738;2023-09-08T07:41:44;26.98;;;24.88;;
48588;SDS011;34369;51.174;6.738;2023-09-08T07:44:16;27.25;;;25.20;;
48588;SDS011;34369;51.174;6.738;2023-09-08T07:46:49;26.13;;;24.23;;
48588;SDS011;34369;51.174;6.738;2023-09-08T07:49:23;26.55;;;24.52;;
48588;SDS011;34369;51.174;6.738;2023-09-08T07:51:55;26.90;;;24.90;;
48588;SDS011;34369;51.174;6.738;2023-09-08T07:54:27;26.38;;;24.48;;
48588;SDS011;34369;51.174;6.738;2023-09-08T07:57:00;26.05;;;24.13;;
48588;SDS011;34369;51.174;6.738;2023-09-08T07:59:32;26.02;;;24.13;;
48588;SDS011;34369;51.174;6.738;2023-09-08T08:02:04;25.70;;;23.80;;
48588;SDS011;34369;51.174;6.738;2023-09-08T08:04:38;26.52;;;24.33;;
48588;SDS011;34369;51.174;6.738;2023-09-08T08:07:10;25.65;;;23.75;;
48588;SDS011;34369;51.174;6.738;2023-09-08T08:09:42;25.15;;;23.25;;
48588;SDS011;34369;51.174;6.738;2023-09-08T08:12:15;25.52;;;23.63;;
48588;SDS011;34369;51.174;6.738;2023-09-08T08:14:47;24.65;;;22.88;;
48588;SDS011;34369;51.174;6.738;2023-09-08T08:17:19;25.35;;;23.45;;
48588;SDS011;34369;51.174;6.738;2023-09-08T08:19:53;25.30;;;23.50;;
48588;SDS011;34369;51.174;6.738;2023-09-08T08:22:28;25.10;;;23.20;;
48588;SDS011;34369;51.174;6.738;2023-09-08T08:25:01;24.85;;;22.95;;
48588;SDS011;34369;51.174;6.738;2023-09-08T08:27:34;25.70;;;23.80;;
48588;SDS011;34369;51.174;6.738;2023-09-08T08:30:07;25.15;;;23.33;;
48588;SDS011;34369;51.174;6.738;2023-09-08T08:32:42;25.65;;;23.75;;
48588;SDS011;34369;51.174;6.738;2023-09-08T08:35:15;25.15;;;23.23;;
48588;SDS011;34369;51.174;6.738;2023-09-08T08:37:48;24.50;;;22.70;;
48588;SDS011;34369;51.174;6.738;2023-09-08T08:40:21;24.95;;;23.15;;
48588;SDS011;34369;51.174;6.738;2023-09-08T08:42:57;24.95;;;23.00;;
48588;SDS011;34369;51.174;6.738;2023-09-08T08:45:30;24.38;;;22.48;;
48588;SDS011;34369;51.174;6.738;2023-09-08T08:48:04;24.60;;;22.58;;
48588;SDS011;34369;51.174;6.738;2023-09-08T08:50:40;24.17;;;22.35;;
48588;SDS011;34369;51.174;6.738;2023-09-08T08:55:47;24.40;;;22.45;;
48588;SDS011;34369;51.174;6.738;2023-09-08T08:58:21;24.45;;;22.50;;
48588;SDS011;34369;51.174;6.738;2023-09-08T09:00:56;23.65;;;21.83;;
48588;SDS011;34369;51.174;6.738;2023-09-08T09:03:31;22.60;;;20.90;;
48588;SDS011;34369;51.174;6.738;2023-09-08T09:06:08;22.02;;;20.30;;
48588;SDS011;34369;51.174;6.738;2023-09-08T09:08:42;22.05;;;20.35;;
48588;SDS011;34369;51.174;6.738;2023-09-08T09:11:16;21.55;;;19.85;;
48588;SDS011;34369;51.174;6.738;2023-09-08T09:13:48;21.33;;;19.42;;
48588;SDS011;34369;51.174;6.738;2023-09-08T09:16:21;20.30;;;18.60;;
48588;SDS011;34369;51.174;6.738;2023-09-08T09:18:54;21.27;;;19.52;;
48588;SDS011;34369;51.174;6.738;2023-09-08T09:21:40;22.38;;;20.58;;
48588;SDS011;34369;51.174;6.738;2023-09-08T09:24:14;22.52;;;20.73;;
48588;SDS011;34369;51.174;6.738;2023-09-08T09:26:47;23.23;;;21.42;;
48588;SDS011;34369;51.174;6.738;2023-09-08T09:29:24;22.23;;;20.42;;
48588;SDS011;34369;51.174;6.738;2023-09-08T09:31:57;23.38;;;21.50;;
48588;SDS011;34369;51.174;6.738;2023-09-08T09:34:34;22.23;;;20.45;;
48588;SDS011;34369;51.174;6.738;2023-09-08T09:37:08;22.52;;;20.83;;
48588;SDS011;34369;51.174;6.738;2023-09-08T09:39:41;22.73;;;20.83;;
48588;SDS011;34369;51.174;6.738;2023-09-08T09:42:13;23.08;;;21.27;;
48588;SDS011;34369;51.174;6.738;2023-09-08T09:44:46;22.27;;;20.58;;
48588;SDS011;34369;51.174;6.738;2023-09-08T09:47:19;21.58;;;19.67;;
48588;SDS011;34369;51.174;6.738;2023-09-08T09:49:51;22.10;;;20.33;;
48588;SDS011;34369;51.174;6.738;2023-09-08T09:52:25;23.05;;;21.08;;
48588;SDS011;34369;51.174;6.738;2023-09-08T09:54:57;22.98;;;20.98;;
48588;SDS011;34369;51.174;6.738;2023-09-08T09:57:30;23.23;;;21.33;;
48588;SDS011;34369;51.174;6.738;2023-09-08T10:00:04;22.48;;;20.77;;
48588;SDS011;34369;51.174;6.738;2023-09-08T10:02:43;22.65;;;20.95;;
48588;SDS011;34369;51.174;6.738;2023-09-08T10:05:18;22.45;;;20.65;;
48588;SDS011;34369;51.174;6.738;2023-09-08T10:07:52;23.42;;;21.52;;
48588;SDS011;34369;51.174;6.738;2023-09-08T10:10:25;22.75;;;21.05;;
48588;SDS011;34369;51.174;6.738;2023-09-08T10:13:01;22.65;;;20.95;;
48588;SDS011;34369;51.174;6.738;2023-09-08T10:15:37;22.48;;;20.67;;
48588;SDS011;34369;51.174;6.738;2023-09-08T10:18:10;23.63;;;21.83;;
48588;SDS011;34369;51.174;6.738;2023-09-08T10:20:46;22.73;;;20.92;;
48588;SDS011;34369;51.174;6.738;2023-09-08T10:23:22;22.92;;;21.02;;
48588;SDS011;34369;51.174;6.738;2023-09-08T10:26:02;22.67;;;20.95;;
48588;SDS011;34369;51.174;6.738;2023-09-08T10:28:37;22.60;;;20.80;;
48588;SDS011;34369;51.174;6.738;2023-09-08T10:31:10;22.98;;;21.17;;
48588;SDS011;34369;51.174;6.738;2023-09-08T10:33:43;22.50;;;20.80;;
48588;SDS011;34369;51.174;6.738;2023-09-08T10:36:16;22.45;;;20.75;;
48588;SDS011;34369;51.174;6.738;2023-09-08T10:38:50;22.60;;;20.70;;
48588;SDS011;34369;51.174;6.738;2023-09-08T10:44:06;22.60;;;20.80;;
48588;SDS011;34369;51.174;6.738;2023-09-08T10:46:39;22.83;;;21.13;;
48588;SDS011;34369;51.174;6.738;2023-09-08T10:49:11;22.23;;;20.52;;
48588;SDS011;34369;51.174;6.738;2023-09-08T10:51:47;22.50;;;20.70;;
48588;SDS011;34369;51.174;6.738;2023-09-08T10:57:14;23.27;;;21.48;;
48588;SDS011;34369;51.174;6.738;2023-09-08T10:59:51;22.60;;;20.83;;
48588;SDS011;34369;51.174;6.738;2023-09-08T11:02:34;22.48;;;20.67;;
48588;SDS011;34369;51.174;6.738;2023-09-08T11:05:07;22.67;;;20.88;;
48588;SDS011;34369;51.174;6.738;2023-09-08T11:07:43;23.00;;;21.10;;
48588;SDS011;34369;51.174;6.738;2023-09-08T11:10:17;22.30;;;20.50;;
48588;SDS011;34369;51.174;6.738;2023-09-08T11:12:49;21.88;;;20.15;;
48588;SDS011;34369;51.174;6.738;2023-09-08T11:15:22;22.40;;;20.48;;
48588;SDS011;34369;51.174;6.738;2023-09-08T11:17:54;22.92;;;21.00;;
48588;SDS011;34369;51.174;6.738;2023-09-08T11:20:27;22.75;;;20.85;;
48588;SDS011;34369;51.174;6.738;2023-09-08T11:22:59;21.98;;;20.27;;
48588;SDS011;34369;51.174;6.738;2023-09-08T11:25:35;22.27;;;20.42;;
48588;SDS011;34369;51.174;6.738;2023-09-08T11:28:07;22.65;;;20.88;;
48588;SDS011;34369;51.174;6.738;2023-09-08T11:30:39;22.65;;;20.95;;
48588;SDS011;34369;51.174;6.738;2023-09-08T11:33:13;22.13;;;20.42;;
48588;SDS011;34369;51.174;6.738;2023-09-08T11:35:46;21.30;;;19.65;;
48588;SDS011;34369;51.174;6.738;2023-09-08T11:38:19;22.08;;;20.38;;
48588;SDS011;34369;51.174;6.738;2023-09-08T11:40:57;20.90;;;19.00;;
48588;SDS011;34369;51.174;6.738;2023-09-08T11:43:30;21.30;;;19.60;;
48588;SDS011;34369;51.174;6.738;2023-09-08T11:46:03;20.63;;;19.02;;
48588;SDS011;34369;51.174;6.738;2023-09-08T11:48:37;20.63;;;18.92;;
48588;SDS011;34369;51.174;6.738;2023-09-08T11:51:10;20.60;;;18.88;;
48588;SDS011;34369;51.174;6.738;2023-09-08T11:53:42;19.88;;;18.27;;
48588;SDS011;34369;51.174;6.738;2023-09-08T11:56:16;18.58;;;17.08;;
48588;SDS011;34369;51.174;6.738;2023-09-08T11:58:48;19.42;;;17.83;;
48588;SDS011;34369;51.174;6.738;2023-09-08T12:01:21;20.45;;;18.75;;
48588;SDS011;34369;51.174;6.738;2023-09-08T12:03:54;19.92;;;18.33;;
48588;SDS011;34369;51.174;6.738;2023-09-08T12:06:28;21.00;;;19.27;;
48588;SDS011;34369;51.174;6.738;2023-09-08T12:09:00;20.60;;;18.90;;
48588;SDS011;34369;51.174;6.738;2023-09-08T12:11:34;19.70;;;18.00;;
48588;SDS011;34369;51.174;6.738;2023-09-08T12:14:11;20.42;;;18.83;;
48588;SDS011;34369;51.174;6.738;2023-09-08T12:16:45;20.40;;;18.80;;
48588;SDS011;34369;51.174;6.738;2023-09-08T12:19:30;20.25;;;18.45;;
48588;SDS011;34369;51.174;6.738;2023-09-08T12:22:03;20.48;;;18.88;;
48588;SDS011;34369;51.174;6.738;2023-09-08T12:24:47;20.55;;;18.80;;
48588;SDS011;34369;51.174;6.738;2023-09-08T12:27:22;20.67;;;19.08;;
48588;SDS011;34369;51.174;6.738;2023-09-08T12:29:55;20.75;;;18.98;;
48588;SDS011;34369;51.174;6.738;2023-09-08T12:32:30;20.70;;;18.95;;
48588;SDS011;34369;51.174;6.738;2023-09-08T12:35:04;20.80;;;19.10;;
48588;SDS011;34369;51.174;6.738;2023-09-08T12:37:36;20.63;;;19.08;;
48588;SDS011;34369;51.174;6.738;2023-09-08T12:40:10;21.20;;;19.40;;
48588;SDS011;34369;51.174;6.738;2023-09-08T12:42:44;19.25;;;17.67;;
48588;SDS011;34369;51.174;6.738;2023-09-08T12:45:17;19.77;;;18.05;;
48588;SDS011;34369;51.174;6.738;2023-09-08T12:47:51;19.67;;;17.98;;
48588;SDS011;34369;51.174;6.738;2023-09-08T12:50:25;19.40;;;17.83;;
48588;SDS011;34369;51.174;6.738;2023-09-08T12:52:57;20.30;;;18.65;;
48588;SDS011;34369;51.174;6.738;2023-09-08T12:55:29;19.77;;;18.17;;
48588;SDS011;34369;51.174;6.738;2023-09-08T12:58:03;20.30;;;18.70;;
48588;SDS011;34369;51.174;6.738;2023-09-08T13:00:35;21.73;;;19.92;;
48588;SDS011;34369;51.174;6.738;2023-09-08T13:03:07;21.52;;;19.55;;
48588;SDS011;34369;51.174;6.738;2023-09-08T13:05:39;19.52;;;17.92;;
48588;SDS011;34369;51.174;6.738;2023-09-08T13:08:12;20.27;;;18.67;;
48588;SDS011;34369;51.174;6.738;2023-09-08T13:10:45;19.80;;;18.20;;
48588;SDS011;34369;51.174;6.738;2023-09-08T13:13:19;19.42;;;17.90;;
48588;SDS011;34369;51.174;6.738;2023-09-08T13:15:51;18.80;;;17.30;;
48588;SDS011;34369;51.174;6.738;2023-09-08T13:18:23;19.50;;;17.77;;
48588;SDS011;34369;51.174;6.738;2023-09-08T13:20:55;19.13;;;17.52;;
48588;SDS011;34369;51.174;6.738;2023-09-08T13:23:27;18.98;;;17.38;;
48588;SDS011;34369;51.174;6.738;2023-09-08T13:25:59;19.02;;;17.40;;
48588;SDS011;34369;51.174;6.738;2023-09-08T13:28:35;18.42;;;16.92;;
48588;SDS011;34369;51.174;6.738;2023-09-08T13:31:07;19.77;;;17.90;;
48588;SDS011;34369;51.174;6.738;2023-09-08T13:33:39;18.02;;;16.55;;
48588;SDS011;34369;51.174;6.738;2023-09-08T13:36:12;18.60;;;17.10;;
48588;SDS011;34369;51.174;6.738;2023-09-08T13:38:44;19.13;;;17.52;;
48588;SDS011;34369;51.174;6.738;2023-09-08T13:41:16;19.05;;;17.35;;
48588;SDS011;34369;51.174;6.738;2023-09-08T13:43:49;18.33;;;16.83;;
48588;SDS011;34369;51.174;6.738;2023-09-08T13:46:21;19.20;;;17.70;;
48588;SDS011;34369;51.174;6.738;2023-09-08T13:48:54;18.42;;;16.83;;
48588;SDS011;34369;51.174;6.738;2023-09-08T13:51:26;19.45;;;17.77;;
48588;SDS011;34369;51.174;6.738;2023-09-08T13:53:58;18.20;;;16.65;;
48588;SDS011;34369;51.174;6.738;2023-09-08T13:56:30;19.25;;;17.60;;
48588;SDS011;34369;51.174;6.738;2023-09-08T13:59:03;19.65;;;17.90;;
48588;SDS011;34369;51.174;6.738;2023-09-08T14:01:36;19.20;;;17.60;;
48588;SDS011;34369;51.174;6.738;2023-09-08T14:04:08;19.50;;;17.90;;
48588;SDS011;34369;51.174;6.738;2023-09-08T14:06:40;19.30;;;17.50;;
48588;SDS011;34369;51.174;6.738;2023-09-08T14:09:12;19.13;;;17.50;;
48588;SDS011;34369;51.174;6.738;2023-09-08T14:11:44;19.63;;;17.88;;
48588;SDS011;34369;51.174;6.738;2023-09-08T14:14:18;20.30;;;18.50;;
48588;SDS011;34369;51.174;6.738;2023-09-08T14:16:51;20.08;;;18.48;;
48588;SDS011;34369;51.174;6.738;2023-09-08T14:19:23;20.00;;;18.30;;
48588;SDS011;34369;51.174;6.738;2023-09-08T14:21:55;20.15;;;18.33;;
48588;SDS011;34369;51.174;6.738;2023-09-08T14:24:27;22.20;;;18.15;;
48588;SDS011;34369;51.174;6.738;2023-09-08T14:26:59;20.33;;;18.63;;
48588;SDS011;34369;51.174;6.738;2023-09-08T14:29:34;21.00;;;19.20;;
48588;SDS011;34369;51.174;6.738;2023-09-08T14:32:06;20.77;;;19.08;;
48588;SDS011;34369;51.174;6.738;2023-09-08T14:34:38;20.45;;;18.75;;
48588;SDS011;34369;51.174;6.738;2023-09-08T14:37:10;21.00;;;19.30;;
48588;SDS011;34369;51.174;6.738;2023-09-08T14:39:42;20.52;;;18.92;;
48588;SDS011;34369;51.174;6.738;2023-09-08T14:42:14;21.23;;;19.45;;
48588;SDS011;34369;51.174;6.738;2023-09-08T14:44:48;20.75;;;19.08;;
48588;SDS011;34369;51.174;6.738;2023-09-08T14:47:21;20.40;;;18.70;;
48588;SDS011;34369;51.174;6.738;2023-09-08T14:49:53;21.77;;;19.60;;
48588;SDS011;34369;51.174;6.738;2023-09-08T14:52:26;21.55;;;19.65;;
48588;SDS011;34369;51.174;6.738;2023-09-08T14:54:58;20.95;;;19.30;;
48588;SDS011;34369;51.174;6.738;2023-09-08T14:57:30;21.48;;;19.77;;
48588;SDS011;34369;51.174;6.738;2023-09-08T15:00:04;22.77;;;20.90;;
48588;SDS011;34369;51.174;6.738;2023-09-08T15:05:10;21.08;;;19.38;;
48588;SDS011;34369;51.174;6.738;2023-09-08T15:07:42;21.15;;;19.45;;
48588;SDS011;34369;51.174;6.738;2023-09-08T15:10:19;21.38;;;19.55;;